sensor_id;sensor_type;location;lat;lon;timestamp;temperature;humidity
72277;SHT30;61204;49.980;8.358;2023-06-10T00:02:12;19.73;63.41
72277;SHT30;61204;49.980;8.358;2023-06-10T00:04:37;19.68;63.70
72277;SHT30;61204;49.980;8.358;2023-06-10T00:07:04;19.68;63.56
72277;SHT30;61204;49.980;8.358;2023-06-10T00:09:34;19.68;63.55
72277;SHT30;61204;49.980;8.358;2023-06-10T00:12:05;19.70;63.37
72277;SHT30;61204;49.980;8.358;2023-06-10T00:14:36;19.70;63.33
72277;SHT30;61204;49.980;8.358;2023-06-10T00:17:03;19.69;63.33
72277;SHT30;61204;49.980;8.358;2023-06-10T00:19:29;19.59;63.64
72277;SHT30;61204;49.980;8.358;2023-06-10T00:21:57;19.62;63.47
72277;SHT30;61204;49.980;8.358;2023-06-10T00:24:25;19.61;63.68
72277;SHT30;61204;49.980;8.358;2023-06-10T00:26:51;19.62;63.57
72277;SHT30;61204;49.980;8.358;2023-06-10T00:29:16;19.58;63.64
72277;SHT30;61204;49.980;8.358;2023-06-10T00:31:43;19.54;63.94
72277;SHT30;61204;49.980;8.358;2023-06-10T00:34:13;19.57;63.76
72277;SHT30;61204;49.980;8.358;2023-06-10T00:36:38;19.50;63.90
72277;SHT30;61204;49.980;8.358;2023-06-10T00:39:06;19.44;64.08
72277;SHT30;61204;49.980;8.358;2023-06-10T00:41:34;19.44;63.86
72277;SHT30;61204;49.980;8.358;2023-06-10T00:44:00;19.34;64.43
72277;SHT30;61204;49.980;8.358;2023-06-10T00:46:25;19.32;64.44
72277;SHT30;61204;49.980;8.358;2023-06-10T00:48:54;19.32;64.34
72277;SHT30;61204;49.980;8.358;2023-06-10T00:51:20;19.38;63.98
72277;SHT30;61204;49.980;8.358;2023-06-10T00:53:46;19.38;64.00
72277;SHT30;61204;49.980;8.358;2023-06-10T00:56:13;19.30;64.28
72277;SHT30;61204;49.980;8.358;2023-06-10T00:58:38;19.27;64.38
72277;SHT30;61204;49.980;8.358;2023-06-10T01:01:04;19.23;64.39
72277;SHT30;61204;49.980;8.358;2023-06-10T01:03:35;19.18;64.51
72277;SHT30;61204;49.980;8.358;2023-06-10T01:11:36;19.17;64.29
72277;SHT30;61204;49.980;8.358;2023-06-10T01:14:09;19.20;64.15
72277;SHT30;61204;49.980;8.358;2023-06-10T01:16:40;19.14;64.17
72277;SHT30;61204;49.980;8.358;2023-06-10T01:19:06;19.17;64.11
72277;SHT30;61204;49.980;8.358;2023-06-10T01:21:32;19.25;63.77
72277;SHT30;61204;49.980;8.358;2023-06-10T01:23:58;19.23;63.81
72277;SHT30;61204;49.980;8.358;2023-06-10T01:26:32;19.13;64.15
72277;SHT30;61204;49.980;8.358;2023-06-10T01:29:14;19.10;64.19
72277;SHT30;61204;49.980;8.358;2023-06-10T01:34:26;18.95;64.61
72277;SHT30;61204;49.980;8.358;2023-06-10T01:36:56;18.93;64.71
72277;SHT30;61204;49.980;8.358;2023-06-10T01:39:24;18.90;64.73
72277;SHT30;61204;49.980;8.358;2023-06-10T01:41:52;18.93;64.64
72277;SHT30;61204;49.980;8.358;2023-06-10T01:44:19;18.89;64.72
72277;SHT30;61204;49.980;8.358;2023-06-10T01:46:47;18.82;65.00
72277;SHT30;61204;49.980;8.358;2023-06-10T01:49:13;18.72;65.21
72277;SHT30;61204;49.980;8.358;2023-06-10T01:51:38;18.73;65.22
72277;SHT30;61204;49.980;8.358;2023-06-10T01:54:04;18.72;64.86
72277;SHT30;61204;49.980;8.358;2023-06-10T01:56:33;18.72;64.98
72277;SHT30;61204;49.980;8.358;2023-06-10T01:58:58;18.69;65.05
72277;SHT30;61204;49.980;8.358;2023-06-10T02:01:25;18.56;65.49
72277;SHT30;61204;49.980;8.358;2023-06-10T02:03:53;18.51;65.57
72277;SHT30;61204;49.980;8.358;2023-06-10T02:06:19;18.52;65.72
72277;SHT30;61204;49.980;8.358;2023-06-10T02:08:44;18.56;65.29
72277;SHT30;61204;49.980;8.358;2023-06-10T02:11:10;18.49;65.49
72277;SHT30;61204;49.980;8.358;2023-06-10T02:13:35;18.51;65.40
72277;SHT30;61204;49.980;8.358;2023-06-10T02:16:01;18.51;65.26
72277;SHT30;61204;49.980;8.358;2023-06-10T02:18:28;18.47;65.36
72277;SHT30;61204;49.980;8.358;2023-06-10T02:20:53;18.47;65.35
72277;SHT30;61204;49.980;8.358;2023-06-10T02:23:19;18.33;65.42
72277;SHT30;61204;49.980;8.358;2023-06-10T02:25:45;18.31;65.78
72277;SHT30;61204;49.980;8.358;2023-06-10T02:28:10;18.37;65.47
72277;SHT30;61204;49.980;8.358;2023-06-10T02:30:40;18.35;65.61
72277;SHT30;61204;49.980;8.358;2023-06-10T02:33:06;18.34;65.28
72277;SHT30;61204;49.980;8.358;2023-06-10T02:35:38;18.35;65.22
72277;SHT30;61204;49.980;8.358;2023-06-10T02:38:04;18.34;65.03
72277;SHT30;61204;49.980;8.358;2023-06-10T02:40:30;18.34;64.75
72277;SHT30;61204;49.980;8.358;2023-06-10T02:42:57;18.40;64.63
72277;SHT30;61204;49.980;8.358;2023-06-10T02:45:23;18.33;64.66
72277;SHT30;61204;49.980;8.358;2023-06-10T02:47:48;18.30;64.55
72277;SHT30;61204;49.980;8.358;2023-06-10T02:50:14;18.25;64.65
72277;SHT30;61204;49.980;8.358;2023-06-10T02:52:43;18.31;64.42
72277;SHT30;61204;49.980;8.358;2023-06-10T02:55:08;18.33;64.43
72277;SHT30;61204;49.980;8.358;2023-06-10T02:57:36;18.23;64.45
72277;SHT30;61204;49.980;8.358;2023-06-10T03:00:05;18.25;63.85
72277;SHT30;61204;49.980;8.358;2023-06-10T03:02:35;18.20;63.80
72277;SHT30;61204;49.980;8.358;2023-06-10T03:05:04;18.10;64.00
72277;SHT30;61204;49.980;8.358;2023-06-10T03:07:31;18.13;63.24
72277;SHT30;61204;49.980;8.358;2023-06-10T03:09:57;18.03;63.67
72277;SHT30;61204;49.980;8.358;2023-06-10T03:12:27;18.08;63.61
72277;SHT30;61204;49.980;8.358;2023-06-10T03:14:55;18.06;63.52
72277;SHT30;61204;49.980;8.358;2023-06-10T03:17:20;18.07;63.24
72277;SHT30;61204;49.980;8.358;2023-06-10T03:19:46;18.21;62.58
72277;SHT30;61204;49.980;8.358;2023-06-10T03:22:16;18.24;62.56
72277;SHT30;61204;49.980;8.358;2023-06-10T03:24:41;18.30;61.91
72277;SHT30;61204;49.980;8.358;2023-06-10T03:27:09;18.37;61.86
72277;SHT30;61204;49.980;8.358;2023-06-10T03:29:36;18.30;61.85
72277;SHT30;61204;49.980;8.358;2023-06-10T03:32:03;18.21;62.05
72277;SHT30;61204;49.980;8.358;2023-06-10T03:34:29;18.38;61.16
72277;SHT30;61204;49.980;8.358;2023-06-10T03:36:57;18.40;61.34
72277;SHT30;61204;49.980;8.358;2023-06-10T03:39:26;18.33;61.84
72277;SHT30;61204;49.980;8.358;2023-06-10T03:41:54;18.24;62.26
72277;SHT30;61204;49.980;8.358;2023-06-10T03:44:24;18.41;61.30
72277;SHT30;61204;49.980;8.358;2023-06-10T03:46:53;18.45;61.14
72277;SHT30;61204;49.980;8.358;2023-06-10T03:49:20;18.48;61.31
72277;SHT30;61204;49.980;8.358;2023-06-10T03:51:51;18.45;61.36
72277;SHT30;61204;49.980;8.358;2023-06-10T03:54:17;18.47;61.53
72277;SHT30;61204;49.980;8.358;2023-06-10T03:56:42;18.51;61.39
72277;SHT30;61204;49.980;8.358;2023-06-10T03:59:13;18.48;61.48
72277;SHT30;61204;49.980;8.358;2023-06-10T04:01:39;18.52;61.39
72277;SHT30;61204;49.980;8.358;2023-06-10T04:04:06;18.55;61.27
72277;SHT30;61204;49.980;8.358;2023-06-10T04:06:31;18.49;61.52
72277;SHT30;61204;49.980;8.358;2023-06-10T04:08:57;18.58;61.74
72277;SHT30;61204;49.980;8.358;2023-06-10T04:11:25;18.53;62.18
72277;SHT30;61204;49.980;8.358;2023-06-10T04:13:50;18.51;62.30
72277;SHT30;61204;49.980;8.358;2023-06-10T04:16:15;18.55;62.00
72277;SHT30;61204;49.980;8.358;2023-06-10T04:18:41;18.53;62.30
72277;SHT30;61204;49.980;8.358;2023-06-10T04:21:07;18.55;62.44
72277;SHT30;61204;49.980;8.358;2023-06-10T04:23:35;18.63;62.38
72277;SHT30;61204;49.980;8.358;2023-06-10T04:26:02;18.66;62.41
72277;SHT30;61204;49.980;8.358;2023-06-10T04:28:27;18.75;62.01
72277;SHT30;61204;49.980;8.358;2023-06-10T04:30:53;18.85;61.63
72277;SHT30;61204;49.980;8.358;2023-06-10T04:33:19;18.95;62.12
72277;SHT30;61204;49.980;8.358;2023-06-10T04:35:44;19.08;61.69
72277;SHT30;61204;49.980;8.358;2023-06-10T04:38:11;19.20;62.06
72277;SHT30;61204;49.980;8.358;2023-06-10T04:40:36;19.31;61.32
72277;SHT30;61204;49.980;8.358;2023-06-10T04:43:02;19.45;61.24
72277;SHT30;61204;49.980;8.358;2023-06-10T04:45:27;19.58;60.29
72277;SHT30;61204;49.980;8.358;2023-06-10T04:47:56;19.83;59.40
72277;SHT30;61204;49.980;8.358;2023-06-10T04:50:23;19.94;58.74
72277;SHT30;61204;49.980;8.358;2023-06-10T04:52:49;20.00;58.25
72277;SHT30;61204;49.980;8.358;2023-06-10T04:55:15;20.13;58.20
72277;SHT30;61204;49.980;8.358;2023-06-10T04:57:41;20.34;57.76
72277;SHT30;61204;49.980;8.358;2023-06-10T05:00:07;20.47;56.87
72277;SHT30;61204;49.980;8.358;2023-06-10T05:02:33;20.59;56.78
72277;SHT30;61204;49.980;8.358;2023-06-10T05:04:59;20.75;56.37
72277;SHT30;61204;49.980;8.358;2023-06-10T05:07:25;20.90;55.62
72277;SHT30;61204;49.980;8.358;2023-06-10T05:09:51;21.10;54.43
72277;SHT30;61204;49.980;8.358;2023-06-10T05:12:16;21.28;53.83
72277;SHT30;61204;49.980;8.358;2023-06-10T05:14:42;21.55;53.37
72277;SHT30;61204;49.980;8.358;2023-06-10T05:17:09;21.71;52.56
72277;SHT30;61204;49.980;8.358;2023-06-10T05:19:35;22.00;52.60
72277;SHT30;61204;49.980;8.358;2023-06-10T05:22:02;22.17;51.56
72277;SHT30;61204;49.980;8.358;2023-06-10T05:24:28;22.47;50.57
72277;SHT30;61204;49.980;8.358;2023-06-10T05:26:53;22.45;50.38
72277;SHT30;61204;49.980;8.358;2023-06-10T05:29:19;22.71;50.09
72277;SHT30;61204;49.980;8.358;2023-06-10T05:31:47;23.13;49.98
72277;SHT30;61204;49.980;8.358;2023-06-10T05:34:13;23.27;49.21
72277;SHT30;61204;49.980;8.358;2023-06-10T05:36:38;23.48;48.70
72277;SHT30;61204;49.980;8.358;2023-06-10T05:39:04;23.62;48.04
72277;SHT30;61204;49.980;8.358;2023-06-10T05:41:29;23.58;48.01
72277;SHT30;61204;49.980;8.358;2023-06-10T05:43:55;23.99;48.04
72277;SHT30;61204;49.980;8.358;2023-06-10T05:46:21;24.08;46.24
72277;SHT30;61204;49.980;8.358;2023-06-10T05:48:46;24.33;46.56
72277;SHT30;61204;49.980;8.358;2023-06-10T05:51:12;24.33;45.64
72277;SHT30;61204;49.980;8.358;2023-06-10T05:53:37;24.19;45.64
72277;SHT30;61204;49.980;8.358;2023-06-10T05:56:03;24.19;45.79
72277;SHT30;61204;49.980;8.358;2023-06-10T05:58:29;24.02;46.92
72277;SHT30;61204;49.980;8.358;2023-06-10T06:00:59;24.09;46.99
72277;SHT30;61204;49.980;8.358;2023-06-10T06:03:25;24.17;46.75
72277;SHT30;61204;49.980;8.358;2023-06-10T06:05:50;24.57;47.14
72277;SHT30;61204;49.980;8.358;2023-06-10T06:08:16;24.53;46.06
72277;SHT30;61204;49.980;8.358;2023-06-10T06:10:44;24.72;46.48
72277;SHT30;61204;49.980;8.358;2023-06-10T06:13:10;25.05;44.80
72277;SHT30;61204;49.980;8.358;2023-06-10T06:15:36;25.05;44.18
72277;SHT30;61204;49.980;8.358;2023-06-10T06:18:01;25.24;44.23
72277;SHT30;61204;49.980;8.358;2023-06-10T06:20:27;25.36;43.90
72277;SHT30;61204;49.980;8.358;2023-06-10T06:22:52;25.63;43.50
72277;SHT30;61204;49.980;8.358;2023-06-10T06:25:18;25.47;43.33
72277;SHT30;61204;49.980;8.358;2023-06-10T06:27:43;25.45;43.00
72277;SHT30;61204;49.980;8.358;2023-06-10T06:30:09;25.71;42.84
72277;SHT30;61204;49.980;8.358;2023-06-10T06:32:35;25.84;41.81
72277;SHT30;61204;49.980;8.358;2023-06-10T06:35:00;26.02;41.99
72277;SHT30;61204;49.980;8.358;2023-06-10T06:37:26;25.84;42.64
72277;SHT30;61204;49.980;8.358;2023-06-10T06:39:52;25.08;43.71
72277;SHT30;61204;49.980;8.358;2023-06-10T06:42:18;25.36;43.25
72277;SHT30;61204;49.980;8.358;2023-06-10T06:44:45;25.34;42.92
72277;SHT30;61204;49.980;8.358;2023-06-10T06:47:11;25.54;42.58
72277;SHT30;61204;49.980;8.358;2023-06-10T06:49:39;25.38;42.75
72277;SHT30;61204;49.980;8.358;2023-06-10T06:52:05;25.80;42.13
72277;SHT30;61204;49.980;8.358;2023-06-10T06:54:31;26.12;42.08
72277;SHT30;61204;49.980;8.358;2023-06-10T06:56:57;26.15;41.61
72277;SHT30;61204;49.980;8.358;2023-06-10T06:59:22;26.00;41.76
72277;SHT30;61204;49.980;8.358;2023-06-10T07:01:48;26.00;41.54
72277;SHT30;61204;49.980;8.358;2023-06-10T07:04:15;26.19;41.44
72277;SHT30;61204;49.980;8.358;2023-06-10T07:06:41;26.39;40.63
72277;SHT30;61204;49.980;8.358;2023-06-10T07:09:09;26.00;41.31
72277;SHT30;61204;49.980;8.358;2023-06-10T07:11:35;26.00;41.53
72277;SHT30;61204;49.980;8.358;2023-06-10T07:14:00;26.33;41.39
72277;SHT30;61204;49.980;8.358;2023-06-10T07:16:26;26.57;41.50
72277;SHT30;61204;49.980;8.358;2023-06-10T07:18:52;26.70;40.84
72277;SHT30;61204;49.980;8.358;2023-06-10T07:21:18;27.23;39.51
72277;SHT30;61204;49.980;8.358;2023-06-10T07:23:44;27.58;38.81
72277;SHT30;61204;49.980;8.358;2023-06-10T07:26:10;28.12;38.58
72277;SHT30;61204;49.980;8.358;2023-06-10T07:28:37;28.26;38.34
72277;SHT30;61204;49.980;8.358;2023-06-10T07:31:03;27.85;38.50
72277;SHT30;61204;49.980;8.358;2023-06-10T07:33:29;28.06;38.73
72277;SHT30;61204;49.980;8.358;2023-06-10T07:35:54;28.23;38.18
72277;SHT30;61204;49.980;8.358;2023-06-10T07:38:20;28.27;38.07
72277;SHT30;61204;49.980;8.358;2023-06-10T07:40:46;28.79;37.46
72277;SHT30;61204;49.980;8.358;2023-06-10T07:43:11;29.18;37.17
72277;SHT30;61204;49.980;8.358;2023-06-10T07:45:39;29.74;36.40
72277;SHT30;61204;49.980;8.358;2023-06-10T07:48:06;29.46;36.54
72277;SHT30;61204;49.980;8.358;2023-06-10T07:50:32;29.59;36.17
72277;SHT30;61204;49.980;8.358;2023-06-10T07:52:58;29.85;35.66
72277;SHT30;61204;49.980;8.358;2023-06-10T07:55:24;29.60;36.15
72277;SHT30;61204;49.980;8.358;2023-06-10T07:57:51;29.29;36.86
72277;SHT30;61204;49.980;8.358;2023-06-10T08:00:18;29.47;36.29
72277;SHT30;61204;49.980;8.358;2023-06-10T08:02:43;30.26;35.28
72277;SHT30;61204;49.980;8.358;2023-06-10T08:05:09;30.98;34.55
72277;SHT30;61204;49.980;8.358;2023-06-10T08:07:35;30.74;34.41
72277;SHT30;61204;49.980;8.358;2023-06-10T08:10:01;30.43;35.45
72277;SHT30;61204;49.980;8.358;2023-06-10T08:12:27;30.52;35.18
72277;SHT30;61204;49.980;8.358;2023-06-10T08:14:52;30.74;34.82
72277;SHT30;61204;49.980;8.358;2023-06-10T08:17:18;30.53;34.66
72277;SHT30;61204;49.980;8.358;2023-06-10T08:19:44;31.28;34.13
72277;SHT30;61204;49.980;8.358;2023-06-10T08:22:09;30.75;34.92
72277;SHT30;61204;49.980;8.358;2023-06-10T08:24:37;31.22;34.42
72277;SHT30;61204;49.980;8.358;2023-06-10T08:27:03;31.59;33.90
72277;SHT30;61204;49.980;8.358;2023-06-10T08:29:29;31.47;33.22
72277;SHT30;61204;49.980;8.358;2023-06-10T08:31:56;31.93;33.53
72277;SHT30;61204;49.980;8.358;2023-06-10T08:34:22;31.43;34.06
72277;SHT30;61204;49.980;8.358;2023-06-10T08:36:47;30.16;35.65
72277;SHT30;61204;49.980;8.358;2023-06-10T08:39:18;29.51;36.64
72277;SHT30;61204;49.980;8.358;2023-06-10T08:41:47;30.26;35.49
72277;SHT30;61204;49.980;8.358;2023-06-10T08:44:35;30.44;35.08
72277;SHT30;61204;49.980;8.358;2023-06-10T08:47:06;31.19;34.08
72277;SHT30;61204;49.980;8.358;2023-06-10T08:49:43;31.78;33.43
72277;SHT30;61204;49.980;8.358;2023-06-10T08:52:16;32.18;32.70
72277;SHT30;61204;49.980;8.358;2023-06-10T08:54:52;32.40;32.82
72277;SHT30;61204;49.980;8.358;2023-06-10T08:57:25;32.94;32.04
72277;SHT30;61204;49.980;8.358;2023-06-10T08:59:53;33.53;31.44
72277;SHT30;61204;49.980;8.358;2023-06-10T09:02:20;33.85;31.85
72277;SHT30;61204;49.980;8.358;2023-06-10T09:04:47;34.20;30.08
72277;SHT30;61204;49.980;8.358;2023-06-10T09:07:15;34.38;30.28
72277;SHT30;61204;49.980;8.358;2023-06-10T09:09:44;33.80;30.49
72277;SHT30;61204;49.980;8.358;2023-06-10T09:12:12;33.97;30.38
72277;SHT30;61204;49.980;8.358;2023-06-10T09:14:39;34.11;30.06
72277;SHT30;61204;49.980;8.358;2023-06-10T09:17:05;32.49;32.32
72277;SHT30;61204;49.980;8.358;2023-06-10T09:19:31;32.62;32.14
72277;SHT30;61204;49.980;8.358;2023-06-10T09:21:58;32.25;32.76
72277;SHT30;61204;49.980;8.358;2023-06-10T09:24:24;33.08;32.04
72277;SHT30;61204;49.980;8.358;2023-06-10T09:26:49;33.32;31.33
72277;SHT30;61204;49.980;8.358;2023-06-10T09:29:16;32.81;32.27
72277;SHT30;61204;49.980;8.358;2023-06-10T09:31:43;33.28;32.07
72277;SHT30;61204;49.980;8.358;2023-06-10T09:34:13;34.06;30.39
72277;SHT30;61204;49.980;8.358;2023-06-10T09:36:41;33.25;31.78
72277;SHT30;61204;49.980;8.358;2023-06-10T09:39:17;31.74;33.45
72277;SHT30;61204;49.980;8.358;2023-06-10T09:41:45;32.07;33.00
72277;SHT30;61204;49.980;8.358;2023-06-10T09:44:16;32.00;33.03
72277;SHT30;61204;49.980;8.358;2023-06-10T09:46:42;30.90;34.70
72277;SHT30;61204;49.980;8.358;2023-06-10T09:49:18;32.55;33.18
72277;SHT30;61204;49.980;8.358;2023-06-10T09:51:51;32.04;33.70
72277;SHT30;61204;49.980;8.358;2023-06-10T09:54:18;32.38;33.18
72277;SHT30;61204;49.980;8.358;2023-06-10T09:56:47;32.32;32.51
72277;SHT30;61204;49.980;8.358;2023-06-10T09:59:14;31.81;32.96
72277;SHT30;61204;49.980;8.358;2023-06-10T10:01:40;31.18;33.81
72277;SHT30;61204;49.980;8.358;2023-06-10T10:04:08;31.93;33.10
72277;SHT30;61204;49.980;8.358;2023-06-10T10:06:38;32.24;32.69
72277;SHT30;61204;49.980;8.358;2023-06-10T10:09:05;31.98;32.68
72277;SHT30;61204;49.980;8.358;2023-06-10T10:11:34;31.10;34.41
72277;SHT30;61204;49.980;8.358;2023-06-10T10:14:04;31.35;34.18
72277;SHT30;61204;49.980;8.358;2023-06-10T10:16:36;31.11;34.74
72277;SHT30;61204;49.980;8.358;2023-06-10T10:19:11;31.10;33.98
72277;SHT30;61204;49.980;8.358;2023-06-10T10:21:54;32.24;32.49
72277;SHT30;61204;49.980;8.358;2023-06-10T10:24:31;33.18;31.43
72277;SHT30;61204;49.980;8.358;2023-06-10T10:27:01;32.66;31.81
72277;SHT30;61204;49.980;8.358;2023-06-10T10:29:39;32.48;32.05
72277;SHT30;61204;49.980;8.358;2023-06-10T10:32:06;32.92;32.16
72277;SHT30;61204;49.980;8.358;2023-06-10T10:34:39;32.17;32.97
72277;SHT30;61204;49.980;8.358;2023-06-10T10:37:12;33.48;31.59
72277;SHT30;61204;49.980;8.358;2023-06-10T10:39:38;34.87;29.37
72277;SHT30;61204;49.980;8.358;2023-06-10T10:42:04;35.31;28.99
72277;SHT30;61204;49.980;8.358;2023-06-10T10:44:34;33.83;30.56
72277;SHT30;61204;49.980;8.358;2023-06-10T10:47:02;34.62;29.95
72277;SHT30;61204;49.980;8.358;2023-06-10T10:49:35;35.17;29.72
72277;SHT30;61204;49.980;8.358;2023-06-10T10:52:11;35.55;28.93
72277;SHT30;61204;49.980;8.358;2023-06-10T10:54:37;34.82;28.86
72277;SHT30;61204;49.980;8.358;2023-06-10T10:57:09;34.61;29.45
72277;SHT30;61204;49.980;8.358;2023-06-10T11:02:41;35.40;28.67
72277;SHT30;61204;49.980;8.358;2023-06-10T11:05:10;35.38;28.68
72277;SHT30;61204;49.980;8.358;2023-06-10T11:07:38;35.94;27.95
72277;SHT30;61204;49.980;8.358;2023-06-10T11:10:12;35.59;28.15
72277;SHT30;61204;49.980;8.358;2023-06-10T11:12:49;36.57;27.86
72277;SHT30;61204;49.980;8.358;2023-06-10T11:15:26;36.58;27.87
72277;SHT30;61204;49.980;8.358;2023-06-10T11:31:49;35.00;30.03
72277;SHT30;61204;49.980;8.358;2023-06-10T11:34:21;36.15;28.70
72277;SHT30;61204;49.980;8.358;2023-06-10T11:36:52;37.06;27.58
72277;SHT30;61204;49.980;8.358;2023-06-10T11:39:20;36.96;27.59
72277;SHT30;61204;49.980;8.358;2023-06-10T11:41:46;37.63;26.66
72277;SHT30;61204;49.980;8.358;2023-06-10T11:44:13;38.71;25.77
72277;SHT30;61204;49.980;8.358;2023-06-10T11:46:39;38.56;26.11
72277;SHT30;61204;49.980;8.358;2023-06-10T11:49:08;38.64;25.79
72277;SHT30;61204;49.980;8.358;2023-06-10T11:51:38;36.91;27.19
72277;SHT30;61204;49.980;8.358;2023-06-10T11:54:08;36.03;27.47
72277;SHT30;61204;49.980;8.358;2023-06-10T11:56:34;35.41;28.32
72277;SHT30;61204;49.980;8.358;2023-06-10T11:59:05;36.19;27.24
72277;SHT30;61204;49.980;8.358;2023-06-10T12:01:36;37.47;25.28
72277;SHT30;61204;49.980;8.358;2023-06-10T12:04:04;38.25;25.21
72277;SHT30;61204;49.980;8.358;2023-06-10T12:06:43;37.06;26.30
72277;SHT30;61204;49.980;8.358;2023-06-10T12:11:41;36.57;26.27
72277;SHT30;61204;49.980;8.358;2023-06-10T12:14:08;36.26;26.72
72277;SHT30;61204;49.980;8.358;2023-06-10T12:16:34;37.00;25.87
72277;SHT30;61204;49.980;8.358;2023-06-10T12:19:03;35.07;28.31
72277;SHT30;61204;49.980;8.358;2023-06-10T12:21:31;36.00;27.15
72277;SHT30;61204;49.980;8.358;2023-06-10T12:24:13;35.72;26.50
72277;SHT30;61204;49.980;8.358;2023-06-10T12:26:41;33.90;28.50
72277;SHT30;61204;49.980;8.358;2023-06-10T12:29:24;33.97;28.29
72277;SHT30;61204;49.980;8.358;2023-06-10T12:32:03;34.72;27.83
72277;SHT30;61204;49.980;8.358;2023-06-10T12:37:00;36.91;25.75
72277;SHT30;61204;49.980;8.358;2023-06-10T12:39:26;35.29;26.46
72277;SHT30;61204;49.980;8.358;2023-06-10T12:41:52;34.23;27.92
72277;SHT30;61204;49.980;8.358;2023-06-10T12:44:27;33.51;28.38
72277;SHT30;61204;49.980;8.358;2023-06-10T12:46:57;33.58;28.73
72277;SHT30;61204;49.980;8.358;2023-06-10T12:49:23;34.10;28.57
72277;SHT30;61204;49.980;8.358;2023-06-10T12:51:50;34.11;28.38
72277;SHT30;61204;49.980;8.358;2023-06-10T12:54:15;34.86;27.18
72277;SHT30;61204;49.980;8.358;2023-06-10T12:56:41;34.66;27.18
72277;SHT30;61204;49.980;8.358;2023-06-10T12:59:06;33.44;28.16
72277;SHT30;61204;49.980;8.358;2023-06-10T13:01:32;33.97;28.07
72277;SHT30;61204;49.980;8.358;2023-06-10T13:03:58;33.96;28.62
72277;SHT30;61204;49.980;8.358;2023-06-10T13:06:24;33.56;28.63
72277;SHT30;61204;49.980;8.358;2023-06-10T13:08:49;33.70;29.10
72277;SHT30;61204;49.980;8.358;2023-06-10T13:11:16;34.34;28.82
72277;SHT30;61204;49.980;8.358;2023-06-10T13:13:41;33.62;28.83
72277;SHT30;61204;49.980;8.358;2023-06-10T13:16:07;33.49;29.29
72277;SHT30;61204;49.980;8.358;2023-06-10T13:18:33;34.21;28.95
72277;SHT30;61204;49.980;8.358;2023-06-10T13:21:03;34.62;28.35
72277;SHT30;61204;49.980;8.358;2023-06-10T13:23:29;33.53;28.29
72277;SHT30;61204;49.980;8.358;2023-06-10T13:25:57;32.90;29.54
72277;SHT30;61204;49.980;8.358;2023-06-10T13:28:22;33.01;29.51
72277;SHT30;61204;49.980;8.358;2023-06-10T13:30:50;33.19;29.68
72277;SHT30;61204;49.980;8.358;2023-06-10T13:33:16;33.87;28.99
72277;SHT30;61204;49.980;8.358;2023-06-10T13:35:41;33.42;29.60
72277;SHT30;61204;49.980;8.358;2023-06-10T13:38:07;33.52;29.37
72277;SHT30;61204;49.980;8.358;2023-06-10T13:40:34;33.86;29.14
72277;SHT30;61204;49.980;8.358;2023-06-10T13:43:00;33.79;29.17
72277;SHT30;61204;49.980;8.358;2023-06-10T13:45:28;34.42;28.65
72277;SHT30;61204;49.980;8.358;2023-06-10T13:47:53;35.27;27.81
72277;SHT30;61204;49.980;8.358;2023-06-10T13:50:19;35.45;27.40
72277;SHT30;61204;49.980;8.358;2023-06-10T13:52:44;35.51;27.66
72277;SHT30;61204;49.980;8.358;2023-06-10T13:55:10;35.97;26.06
72277;SHT30;61204;49.980;8.358;2023-06-10T13:57:38;35.52;27.24
72277;SHT30;61204;49.980;8.358;2023-06-10T14:00:04;36.61;26.30
72277;SHT30;61204;49.980;8.358;2023-06-10T14:02:32;37.27;25.51
72277;SHT30;61204;49.980;8.358;2023-06-10T14:04:58;36.70;25.26
72277;SHT30;61204;49.980;8.358;2023-06-10T14:07:23;35.54;26.82
72277;SHT30;61204;49.980;8.358;2023-06-10T14:09:51;36.17;26.30
72277;SHT30;61204;49.980;8.358;2023-06-10T14:12:16;35.21;27.30
72277;SHT30;61204;49.980;8.358;2023-06-10T14:14:44;35.02;26.99
72277;SHT30;61204;49.980;8.358;2023-06-10T14:17:12;35.21;27.14
72277;SHT30;61204;49.980;8.358;2023-06-10T14:19:37;35.11;27.18
72277;SHT30;61204;49.980;8.358;2023-06-10T14:22:05;35.14;27.33
72277;SHT30;61204;49.980;8.358;2023-06-10T14:24:33;35.26;27.34
72277;SHT30;61204;49.980;8.358;2023-06-10T14:27:00;34.80;27.54
72277;SHT30;61204;49.980;8.358;2023-06-10T14:29:27;34.28;27.53
72277;SHT30;61204;49.980;8.358;2023-06-10T14:31:55;34.03;28.14
72277;SHT30;61204;49.980;8.358;2023-06-10T14:34:20;33.06;27.77
72277;SHT30;61204;49.980;8.358;2023-06-10T14:36:48;33.06;28.10
72277;SHT30;61204;49.980;8.358;2023-06-10T14:39:14;32.74;28.57
72277;SHT30;61204;49.980;8.358;2023-06-10T14:41:39;32.33;29.37
72277;SHT30;61204;49.980;8.358;2023-06-10T14:44:05;32.48;29.07
72277;SHT30;61204;49.980;8.358;2023-06-10T14:46:30;33.08;30.12
72277;SHT30;61204;49.980;8.358;2023-06-10T14:48:58;32.04;30.79
72277;SHT30;61204;49.980;8.358;2023-06-10T14:51:24;32.38;30.92
72277;SHT30;61204;49.980;8.358;2023-06-10T14:53:50;32.51;30.18
72277;SHT30;61204;49.980;8.358;2023-06-10T14:56:15;32.88;30.16
72277;SHT30;61204;49.980;8.358;2023-06-10T14:58:41;33.76;29.41
72277;SHT30;61204;49.980;8.358;2023-06-10T15:01:09;34.62;27.78
72277;SHT30;61204;49.980;8.358;2023-06-10T15:03:35;34.99;26.99
72277;SHT30;61204;49.980;8.358;2023-06-10T15:06:00;34.87;27.32
72277;SHT30;61204;49.980;8.358;2023-06-10T15:08:26;35.65;26.66
72277;SHT30;61204;49.980;8.358;2023-06-10T15:10:53;35.94;26.06
72277;SHT30;61204;49.980;8.358;2023-06-10T15:13:19;36.33;25.96
72277;SHT30;61204;49.980;8.358;2023-06-10T15:15:45;35.74;25.99
72277;SHT30;61204;49.980;8.358;2023-06-10T15:18:10;34.13;27.43
72277;SHT30;61204;49.980;8.358;2023-06-10T15:20:36;34.01;27.39
72277;SHT30;61204;49.980;8.358;2023-06-10T15:23:01;34.00;27.69
72277;SHT30;61204;49.980;8.358;2023-06-10T15:25:26;34.65;27.43
72277;SHT30;61204;49.980;8.358;2023-06-10T15:27:52;34.28;27.89
72277;SHT30;61204;49.980;8.358;2023-06-10T15:30:18;34.90;27.02
72277;SHT30;61204;49.980;8.358;2023-06-10T15:32:43;34.70;27.54
72277;SHT30;61204;49.980;8.358;2023-06-10T15:35:11;34.93;26.55
72277;SHT30;61204;49.980;8.358;2023-06-10T15:37:37;34.48;27.54
72277;SHT30;61204;49.980;8.358;2023-06-10T15:40:02;34.86;26.80
72277;SHT30;61204;49.980;8.358;2023-06-10T15:42:28;34.45;27.51
72277;SHT30;61204;49.980;8.358;2023-06-10T15:44:54;33.58;28.97
72277;SHT30;61204;49.980;8.358;2023-06-10T15:47:19;33.42;29.87
72277;SHT30;61204;49.980;8.358;2023-06-10T15:49:45;32.62;30.47
72277;SHT30;61204;49.980;8.358;2023-06-10T15:52:13;31.73;31.06
72277;SHT30;61204;49.980;8.358;2023-06-10T15:54:41;31.78;31.56
72277;SHT30;61204;49.980;8.358;2023-06-10T15:57:06;31.54;32.08
72277;SHT30;61204;49.980;8.358;2023-06-10T15:59:33;31.23;32.56
72277;SHT30;61204;49.980;8.358;2023-06-10T16:01:59;30.60;33.64